Time;durP1;ratioP1;P1;durP2;ratioP2;P2;SDS_P1;SDS_P2;PMS_P1;PMS_P2;Temp;Humidity;BMP_temperature;BMP_pressure;BME280_temperature;BME280_humidity;BME280_pressure;Samples;Min_cycle;Max_cycle;Signal;HPM_P1;HPM_P2
2021/09/29 17:58:54;;;;;;;;;;;;;;;15.07;89.35;101043.44;1403147;85;21629;31
2021/09/29 18:01:29;;;;;;;;;;;;;;;15.06;89.51;101041.78;1421238;85;20267;-95
2021/09/29 18:04:11;;;;;;;;;;;;;;;15.06;89.70;101048.45;1398077;85;20362;-96
2021/09/29 18:09:16;;;;;;;;;;;;;;;15.09;89.02;101054.78;1381106;89;20356;-96
2021/09/29 18:14:33;;;;;;;;;;;;;;;15.10;89.15;101053.30;1393111;86;20387;31
2021/09/29 18:22:12;;;;;;;;;;;;;;;15.08;90.04;101053.13;1391878;86;20737;-93
2021/09/29 18:24:44;;;;;;;;;;;;;;;15.15;88.36;101050.64;1390583;86;20318;31
2021/09/29 18:27:11;;;;;;;;;;;;;;;15.17;88.17;101053.98;1361046;88;20221;-92
2021/09/29 18:29:42;;;;;;;;;;;;;;;15.18;88.69;101057.80;1369769;86;20500;31
2021/09/29 18:32:09;;;;;;;;;;;;;;;15.17;89.49;101056.66;1412196;86;20650;-96
2021/09/29 18:34:48;;;;;;;;;;;;;;;15.18;88.47;101060.47;1403976;86;20252;-96
2021/09/29 18:39:56;;;;;;;;;;;;;;;15.18;88.84;101063.64;1411182;86;20289;31
2021/09/29 18:42:24;;;;;;;;;;;;;;;15.16;89.04;101062.45;1411428;85;20476;-96
2021/09/29 18:44:54;;;;;;;;;;;;;;;15.19;88.56;101063.50;1393909;86;20214;-96
2021/09/29 18:49:57;;;;;;;;;;;;;;;15.20;88.46;101062.48;1397453;86;20229;-94
2021/09/29 18:52:26;;;;;;;;;;;;;;;15.20;89.12;101058.99;1371057;90;21273;-94
2021/09/29 18:57:46;;;;;;;;;;;;;;;15.23;88.18;101054.16;1360400;90;20337;-94
2021/09/29 19:14:12;;;;;;;;;;;;;;;15.24;87.88;101061.16;1404539;86;20862;-96
2021/09/29 19:16:40;;;;;;;;;;;;;;;15.26;87.67;101061.83;1373736;86;20228;-96
2021/09/29 19:19:07;;;;;;;;;;;;;;;15.26;87.42;101067.17;1374274;86;20241;-95
2021/09/29 19:24:14;;;;;;;;;;;;;;;15.32;86.81;101070.52;1397188;86;20273;-95
2021/09/29 19:29:37;;;;;;;;;;;;;;;15.27;87.47;101075.49;1362187;92;20183;-96
2021/09/29 19:32:58;;;;;;;;;;;;;;;15.26;87.81;101074.34;1345145;92;20277;-96
2021/09/29 19:35:28;;;;;;;;;;;;;;;15.26;87.28;101073.00;1360257;92;20878;-95
2021/09/29 19:41:36;;;;;;;;;;;;;;;15.28;87.02;101072.35;1374262;87;20296;-94
2021/09/29 19:44:06;;;;;;;;;;;;;;;15.28;86.99;101069.69;1354894;91;20355;-94
2021/09/29 19:46:45;;;;;;;;;;;;;;;15.28;87.04;101075.84;1370206;90;20260;-95
2021/09/29 19:49:29;;;;;;;;;;;;;;;15.28;87.21;101077.69;1361348;86;20251;-95
2021/09/29 20:08:28;;;;;;;;;;;;;;;15.27;86.93;101081.33;1342081;87;20186;31
2021/09/29 20:10:59;;;;;;;;;;;;;;;15.27;87.59;101084.00;1361695;90;20330;-94
2021/09/29 20:13:26;;;;;;;;;;;;;;;15.30;86.63;101085.00;1370843;91;20301;-95
2021/09/29 20:15:57;;;;;;;;;;;;;;;15.31;86.59;101092.02;1354938;91;20310;-94
2021/09/29 20:18:35;;;;;;;;;;;;;;;15.32;86.42;101094.52;1353242;91;20388;-94
2021/09/29 20:21:10;;;;;;;;;;;;;;;15.32;86.75;101094.52;1363127;92;20363;-94
2021/09/29 20:23:39;;;;;;;;;;;;;;;15.32;87.11;101091.84;1360797;91;20250;-95
2021/09/29 20:26:06;;;;;;;;;;;;;;;15.32;87.35;101095.02;1358114;90;20249;-95
2021/09/29 20:28:33;;;;;;;;;;;;;;;15.30;86.95;101088.50;1366693;91;20251;-93
2021/09/29 20:31:00;;;;;;;;;;;;;;;15.27;87.71;101093.33;1352984;92;20932;-93
2021/09/29 20:33:47;;;;;;;;;;;;;;;15.27;86.97;101091.48;1358317;90;20222;-95
2021/09/29 20:36:22;;;;;;;;;;;;;;;15.26;87.51;101097.00;1345062;91;20261;-90
2021/09/29 20:44:21;;;;;;;;;;;;;;;15.24;87.50;101099.81;1391044;88;20262;-85
2021/09/29 20:46:48;;;;;;;;;;;;;;;15.27;86.80;101100.00;1391427;88;20299;-87
2021/09/29 20:49:15;;;;;;;;;;;;;;;15.27;87.08;101100.83;1391492;88;20246;-87
2021/09/29 20:51:43;;;;;;;;;;;;;;;15.28;86.70;101103.02;1390098;88;20301;-87
2021/09/29 20:54:11;;;;;;;;;;;;;;;15.28;86.83;101106.52;1389867;88;20239;-89
2021/09/29 20:56:38;;;;;;;;;;;;;;;15.29;86.61;101108.68;1389791;88;20255;-88
2021/09/29 20:59:06;;;;;;;;;;;;;;;15.28;86.49;101103.84;1389763;88;20892;-87
2021/09/29 21:01:35;;;;;;;;;;;;;;;15.28;86.26;101106.52;1389726;88;20261;-88
2021/09/29 21:04:06;;;;;;;;;;;;;;;15.26;86.34;101111.17;1374299;90;20254;-88
2021/09/29 21:06:34;;;;;;;;;;;;;;;15.24;86.45;101108.32;1389659;88;20239;-88
2021/09/29 21:09:12;;;;;;;;;;;;;;;15.21;86.20;101104.64;1389478;88;20322;-89
2021/09/29 21:14:46;;;;;;;;;;;;;;;15.19;86.17;101109.30;1389941;88;20299;-90
2021/09/29 21:19:47;;;;;;;;;;;;;;;15.15;86.29;101118.13;1389588;88;20246;-88
2021/09/29 21:22:15;;;;;;;;;;;;;;;15.17;85.65;101110.80;1389559;88;20765;-88
2021/09/29 21:24:42;;;;;;;;;;;;;;;15.19;85.36;101116.83;1389572;88;20855;-88
2021/09/29 21:27:10;;;;;;;;;;;;;;;15.18;85.23;101108.47;1389654;88;20783;-88
2021/09/29 21:29:39;;;;;;;;;;;;;;;15.19;84.96;101114.16;1389475;88;20709;-88
2021/09/29 21:32:07;;;;;;;;;;;;;;;15.16;84.86;101109.62;1388357;88;20247;-88
2021/09/29 21:34:35;;;;;;;;;;;;;;;15.14;84.98;101118.30;1389569;87;20306;-89
2021/09/29 21:37:03;;;;;;;;;;;;;;;15.14;84.46;101120.46;1406111;87;20371;-88
2021/09/29 22:02:17;;;;;;;;;;;;;;;15.04;82.56;101127.73;1393328;88;20266;-89
2021/09/29 23:07:06;;;;;;;;;;;;;;;14.89;79.89;101131.50;1338237;93;20238;-88
2021/09/29 23:09:38;;;;;;;;;;;;;;;14.89;79.65;101132.33;1337685;93;20766;-88
2021/09/29 23:23:13;;;;;;;;;;;;;;;14.94;79.18;101129.70;1328825;92;20765;-88
2021/09/29 23:33:48;;;;;;;;;;;;;;;14.93;79.18;101136.84;1361291;91;20258;-88
2021/09/29 23:36:16;;;;;;;;;;;;;;;14.94;78.99;101136.36;1362234;90;20259;-88
2021/09/29 23:38:43;;;;;;;;;;;;;;;14.91;79.05;101138.02;1361292;91;21169;-88
2021/09/29 23:41:11;;;;;;;;;;;;;;;14.91;78.92;101140.68;1361275;91;20340;-87
2021/09/29 23:43:38;;;;;;;;;;;;;;;14.93;78.92;101141.34;1361352;91;20311;-87
2021/09/29 23:46:05;;;;;;;;;;;;;;;14.91;78.62;101142.02;1389568;91;20244;-87
2021/09/29 23:48:32;;;;;;;;;;;;;;;14.87;78.69;101138.81;1410568;87;20289;-87
2021/09/29 23:50:59;;;;;;;;;;;;;;;14.83;78.89;101140.96;1410615;87;20237;-87
2021/09/29 23:53:28;;;;;;;;;;;;;;;14.82;78.96;101139.80;1410505;87;20289;-87
2021/09/29 23:55:55;;;;;;;;;;;;;;;14.82;78.72;101139.80;1410505;87;20788;-86
2021/09/29 23:58:22;;;;;;;;;;;;;;;14.79;78.99;101141.45;1395591;88;20356;-86
